Time;durP1;ratioP1;P1;durP2;ratioP2;P2;SDS_P1;SDS_P2;PMS_P1;PMS_P2;Temp;Humidity;BMP_temperature;BMP_pressure;BME280_temperature;BME280_humidity;BME280_pressure;Samples;Min_cycle;Max_cycle;Signal;HPM_P1;HPM_P2
2023/07/22 00:02:14;;;;;;;6.97;3.08;;;21.40;99.90;;;;;;4953058;28;20023;-73
2023/07/22 00:04:40;;;;;;;9.15;3.33;;;21.40;99.90;;;;;;4961936;28;20035;-73
2023/07/22 00:07:05;;;;;;;7.60;3.40;;;21.40;99.90;;;;;;4963779;28;20030;-73
2023/07/22 00:09:34;;;;;;;11.50;3.70;;;21.40;99.90;;;;;;4959770;28;20062;-73
2023/07/22 00:12:00;;;;;;;9.13;3.03;;;21.40;99.90;;;;;;4956603;28;20130;-73
2023/07/22 00:14:26;;;;;;;8.57;3.33;;;21.40;99.90;;;;;;4956122;28;20118;-74
2023/07/22 00:16:52;;;;;;;12.38;3.70;;;21.40;99.90;;;;;;4955004;28;20035;-73
2023/07/22 00:19:18;;;;;;;6.30;3.05;;;21.50;99.90;;;;;;4956262;28;20123;-73
2023/07/22 00:21:44;;;;;;;7.15;3.35;;;21.50;99.90;;;;;;4955086;28;20024;-73
2023/07/22 00:24:10;;;;;;;8.38;3.22;;;21.60;99.90;;;;;;4956149;28;20465;-74
2023/07/22 00:26:36;;;;;;;8.48;3.72;;;21.60;99.90;;;;;;4956041;28;20023;-74
2023/07/22 00:29:02;;;;;;;13.45;3.83;;;21.60;99.90;;;;;;4955961;28;20113;-73
2023/07/22 00:31:28;;;;;;;9.93;3.78;;;21.70;99.90;;;;;;4955282;28;20130;-73
2023/07/22 00:33:54;;;;;;;9.32;3.97;;;21.70;99.90;;;;;;4954729;28;20039;-74
2023/07/22 00:36:20;;;;;;;12.15;4.45;;;21.70;99.90;;;;;;4954691;28;20032;-74
2023/07/22 00:38:46;;;;;;;15.63;3.85;;;21.70;99.90;;;;;;4955222;28;20038;-74
2023/07/22 00:41:12;;;;;;;10.50;4.43;;;21.60;99.90;;;;;;4951848;28;20046;-74
2023/07/22 00:43:38;;;;;;;12.13;3.13;;;21.40;99.90;;;;;;4955541;28;20106;-73
2023/07/22 00:46:04;;;;;;;5.07;2.92;;;21.40;99.90;;;;;;4955859;28;20055;-74
2023/07/22 00:48:32;;;;;;;9.73;2.83;;;21.40;99.90;;;;;;4948617;28;20023;-73
2023/07/22 00:50:57;;;;;;;9.18;3.25;;;21.40;99.90;;;;;;4955950;28;20074;-73
2023/07/22 00:53:23;;;;;;;9.93;3.92;;;21.30;99.90;;;;;;4943896;29;20031;-74
2023/07/22 00:55:49;;;;;;;9.05;3.38;;;21.40;99.90;;;;;;4955621;28;20476;-73
2023/07/22 00:58:16;;;;;;;15.60;4.28;;;21.30;99.90;;;;;;4955364;28;20106;-73
2023/07/22 01:00:42;;;;;;;12.80;4.22;;;21.30;99.90;;;;;;4954137;28;20027;-73
2023/07/22 01:03:08;;;;;;;13.73;3.78;;;21.30;99.90;;;;;;4955469;28;20066;-73
2023/07/22 01:05:36;;;;;;;13.18;3.78;;;21.30;99.90;;;;;;4954558;28;20027;-73
2023/07/22 01:08:02;;;;;;;10.50;3.67;;;21.20;99.90;;;;;;4955468;28;20039;-73
2023/07/22 01:10:28;;;;;;;7.60;3.20;;;21.00;99.90;;;;;;4953758;28;20050;-73
2023/07/22 01:12:55;;;;;;;11.48;3.70;;;21.10;99.90;;;;;;4954076;28;20031;-73
2023/07/22 01:15:24;;;;;;;12.70;2.90;;;21.00;99.90;;;;;;4953501;28;20127;-73
2023/07/22 01:17:50;;;;;;;6.82;3.10;;;21.10;99.90;;;;;;4953898;28;20110;-73
2023/07/22 01:20:18;;;;;;;9.18;4.05;;;21.10;99.90;;;;;;4954152;28;20074;-73
2023/07/22 01:22:53;;;;;;;10.40;3.67;;;21.20;99.90;;;;;;4951105;28;20082;-73
2023/07/22 01:25:23;;;;;;;11.55;4.32;;;21.20;99.90;;;;;;4951437;28;20055;-74
2023/07/22 01:27:50;;;;;;;10.38;3.78;;;21.20;99.90;;;;;;4955942;28;20473;-73
2023/07/22 01:30:16;;;;;;;12.98;3.88;;;21.10;99.90;;;;;;4954921;28;20069;-73
2023/07/22 01:32:42;;;;;;;11.43;4.18;;;21.10;99.90;;;;;;4953885;28;20067;-73
2023/07/22 01:35:08;;;;;;;9.32;3.90;;;21.10;99.90;;;;;;4954801;28;20031;-73
2023/07/22 01:37:35;;;;;;;7.82;3.80;;;21.10;99.90;;;;;;4952732;28;20027;-73
2023/07/22 01:40:11;;;;;;;13.88;4.50;;;21.10;99.90;;;;;;4937602;29;20484;-73
2023/07/22 01:42:37;;;;;;;15.80;4.80;;;21.00;99.90;;;;;;4954705;28;20449;-73
2023/07/22 01:45:03;;;;;;;11.85;4.05;;;21.10;99.90;;;;;;4954934;28;20106;-73
2023/07/22 01:47:28;;;;;;;12.85;4.45;;;21.00;99.90;;;;;;4954649;28;20358;-73
2023/07/22 01:49:54;;;;;;;12.38;4.18;;;21.00;99.90;;;;;;4953728;29;20034;-74
2023/07/22 01:52:20;;;;;;;11.27;4.30;;;21.00;99.90;;;;;;4953133;28;20038;-73
2023/07/22 01:54:46;;;;;;;11.85;3.95;;;20.90;99.90;;;;;;4954815;28;20082;-73
2023/07/22 01:57:12;;;;;;;14.60;4.65;;;20.90;99.90;;;;;;4954160;28;20102;-73
2023/07/22 01:59:38;;;;;;;10.60;4.30;;;20.90;99.90;;;;;;4953339;28;20385;-74
2023/07/22 02:02:04;;;;;;;13.82;5.18;;;20.90;99.90;;;;;;4952642;28;20185;-73
2023/07/22 02:04:30;;;;;;;9.98;3.80;;;21.00;99.90;;;;;;4954483;28;20027;-73
2023/07/22 02:06:56;;;;;;;12.10;3.97;;;21.00;99.90;;;;;;4952911;28;20035;-73
2023/07/22 02:09:22;;;;;;;9.50;4.07;;;21.00;99.90;;;;;;4953007;28;20031;-73
2023/07/22 02:11:48;;;;;;;11.93;4.45;;;21.00;99.90;;;;;;4952321;28;20514;-73
2023/07/22 02:14:14;;;;;;;9.50;4.53;;;21.00;99.90;;;;;;4948606;28;20043;-74
2023/07/22 02:16:39;;;;;;;10.65;4.53;;;21.00;99.90;;;;;;4953306;28;20050;-73
2023/07/22 02:19:05;;;;;;;7.10;3.97;;;20.90;99.90;;;;;;4949408;28;20093;-73
2023/07/22 02:21:39;;;;;;;9.57;4.70;;;20.80;99.90;;;;;;4952471;28;20420;-73
2023/07/22 02:24:05;;;;;;;11.30;4.80;;;20.80;99.90;;;;;;4952689;29;20130;-73
2023/07/22 02:26:31;;;;;;;10.63;4.18;;;20.80;99.90;;;;;;4954182;28;20023;-73
2023/07/22 02:28:57;;;;;;;10.48;4.88;;;20.70;99.90;;;;;;4952580;28;20067;-73
2023/07/22 02:31:23;;;;;;;16.60;4.38;;;20.70;99.90;;;;;;4953733;28;20012;-74
2023/07/22 02:33:49;;;;;;;10.35;4.72;;;20.70;99.90;;;;;;4954176;28;20039;-72
2023/07/22 02:36:14;;;;;;;10.80;4.47;;;20.70;99.90;;;;;;4953774;28;20025;-73
2023/07/22 02:38:40;;;;;;;9.57;4.32;;;20.70;99.90;;;;;;4953300;28;20465;-73
2023/07/22 02:41:07;;;;;;;9.80;4.68;;;20.70;99.90;;;;;;4952960;28;20439;-73
2023/07/22 02:43:35;;;;;;;10.80;4.50;;;20.60;99.90;;;;;;4948938;28;20034;-73
2023/07/22 02:46:06;;;;;;;14.10;4.15;;;20.60;99.90;;;;;;4959651;28;20147;-73
2023/07/22 02:48:32;;;;;;;10.55;4.13;;;20.60;99.90;;;;;;4952490;28;20027;-73
2023/07/22 02:51:09;;;;;;;17.73;4.68;;;20.60;99.90;;;;;;4953154;28;20081;-74
2023/07/22 02:53:38;;;;;;;10.07;4.75;;;20.60;99.90;;;;;;4949243;28;20027;-73
2023/07/22 02:56:06;;;;;;;11.98;4.53;;;20.60;99.90;;;;;;4951913;28;20027;-73
2023/07/22 02:58:33;;;;;;;10.48;4.50;;;20.60;99.90;;;;;;4952615;29;20085;-73
2023/07/22 03:00:59;;;;;;;11.18;4.55;;;20.60;99.90;;;;;;4936548;28;20039;-73
2023/07/22 03:03:25;;;;;;;10.38;4.82;;;20.60;99.90;;;;;;4952399;28;20034;-73
2023/07/22 03:05:52;;;;;;;14.52;4.35;;;20.70;99.90;;;;;;4952247;28;20035;-73
2023/07/22 03:08:18;;;;;;;14.40;5.70;;;20.70;99.90;;;;;;4951910;28;20027;-73
2023/07/22 03:10:50;;;;;;;50.85;28.63;;;20.80;99.90;;;;;;4952257;28;20039;-73
2023/07/22 03:13:17;;;;;;;50.45;30.30;;;20.80;99.90;;;;;;4953672;28;20442;-73
2023/07/22 03:15:43;;;;;;;46.25;28.17;;;20.90;99.90;;;;;;4953218;28;20062;-73
2023/07/22 03:18:09;;;;;;;59.58;35.70;;;20.90;99.90;;;;;;4953747;28;20063;-73
2023/07/22 03:20:37;;;;;;;30.10;16.70;;;21.00;99.90;;;;;;4951969;29;20027;-73
2023/07/22 03:23:04;;;;;;;12.80;5.43;;;21.00;99.90;;;;;;4952483;29;20062;-73
2023/07/22 03:25:30;;;;;;;13.48;6.10;;;21.10;99.90;;;;;;4953160;28;20015;-73
2023/07/22 03:27:56;;;;;;;13.00;5.03;;;21.10;99.90;;;;;;4954042;28;20043;-73
2023/07/22 03:30:23;;;;;;;10.05;4.53;;;21.20;99.90;;;;;;4953078;28;20019;-74
2023/07/22 03:32:50;;;;;;;16.85;5.38;;;21.20;99.90;;;;;;4951853;29;20035;-73
2023/07/22 03:35:19;;;;;;;10.88;4.25;;;21.20;99.90;;;;;;4952469;28;20404;-73
2023/07/22 03:37:45;;;;;;;13.55;4.85;;;21.30;99.90;;;;;;4945418;28;20638;-73
2023/07/22 03:40:14;;;;;;;11.98;4.55;;;21.30;99.90;;;;;;4952629;28;20035;-73
2023/07/22 03:42:40;;;;;;;9.20;4.28;;;21.30;99.90;;;;;;4955418;28;20042;-74
2023/07/22 03:45:09;;;;;;;9.20;4.35;;;21.30;99.90;;;;;;4953326;28;20386;-73
2023/07/22 03:47:35;;;;;;;11.02;3.92;;;21.30;99.90;;;;;;4925706;28;20050;-73
2023/07/22 03:50:02;;;;;;;11.23;4.05;;;21.30;99.90;;;;;;4967886;28;20030;-73
2023/07/22 03:52:28;;;;;;;10.93;3.90;;;21.30;99.90;;;;;;4957128;28;20493;-74
2023/07/22 03:54:53;;;;;;;24.13;4.68;;;21.30;99.90;;;;;;4956742;28;20054;-73
2023/07/22 03:57:24;;;;;;;7.97;3.45;;;21.30;99.90;;;;;;4955529;28;20032;-73
2023/07/22 03:59:50;;;;;;;12.68;4.10;;;21.30;99.90;;;;;;4956393;28;20038;-73
2023/07/22 04:02:16;;;;;;;15.85;5.35;;;21.30;99.90;;;;;;4955393;28;20036;-74
2023/07/22 04:04:42;;;;;;;17.20;7.80;;;21.30;99.90;;;;;;4955268;28;20058;-73
2023/07/22 04:07:08;;;;;;;20.98;10.95;;;21.30;99.90;;;;;;4955330;28;20039;-73
2023/07/22 04:09:34;;;;;;;26.23;11.80;;;21.70;99.90;;;;;;4944413;28;20429;-73
2023/07/22 04:12:00;;;;;;;15.60;8.75;;;21.80;99.90;;;;;;4955292;28;20047;-74
2023/07/22 04:14:25;;;;;;;9.65;5.80;;;23.20;99.90;;;;;;4952873;28;20516;-74
2023/07/22 04:16:52;;;;;;;9.18;3.70;;;24.20;99.90;;;;;;4939111;29;20057;-75
2023/07/22 04:19:17;;;;;;;7.53;3.15;;;24.80;99.90;;;;;;4956651;28;20078;-74
2023/07/22 04:21:43;;;;;;;9.55;3.88;;;25.40;99.90;;;;;;4955025;28;20035;-74
2023/07/22 04:24:10;;;;;;;12.02;3.67;;;25.80;99.90;;;;;;4956588;28;20038;-74
2023/07/22 04:26:36;;;;;;;10.18;3.65;;;26.40;99.90;;;;;;4949093;28;20023;-74
2023/07/22 04:29:02;;;;;;;8.43;3.72;;;27.00;99.90;;;;;;4956734;28;20027;-74
2023/07/22 04:31:27;;;;;;;6.97;3.00;;;27.50;99.90;;;;;;4956105;28;20397;-74
2023/07/22 04:33:54;;;;;;;10.20;3.78;;;27.90;99.90;;;;;;4965291;28;20066;-75
2023/07/22 04:36:20;;;;;;;8.80;3.95;;;28.40;99.90;;;;;;4957945;28;20085;-74
2023/07/22 04:38:45;;;;;;;8.35;3.00;;;28.60;99.90;;;;;;4954991;28;20031;-75
2023/07/22 04:41:11;;;;;;;7.20;3.67;;;29.10;99.90;;;;;;4938701;28;20071;-76
2023/07/22 04:43:39;;;;;;;10.25;2.88;;;28.70;99.90;;;;;;4956056;29;20469;-74
2023/07/22 04:46:06;;;;;;;7.53;3.97;;;27.80;99.90;;;;;;4955809;28;20090;-75
2023/07/22 04:48:32;;;;;;;11.30;3.83;;;27.90;99.90;;;;;;4955973;28;20054;-75
2023/07/22 04:50:57;;;;;;;12.82;3.88;;;27.80;99.90;;;;;;4955729;28;20055;-74
2023/07/22 04:53:23;;;;;;;8.35;3.70;;;27.90;99.90;;;;;;4954032;28;20016;-74
2023/07/22 04:55:49;;;;;;;9.85;3.60;;;27.80;99.90;;;;;;4953985;28;20094;-74
2023/07/22 04:58:15;;;;;;;8.68;4.28;;;27.80;99.90;;;;;;4954886;28;20019;-74
2023/07/22 05:00:42;;;;;;;18.30;4.95;;;28.10;99.90;;;;;;4955451;28;20032;-75
2023/07/22 05:03:08;;;;;;;9.48;3.38;;;28.30;99.90;;;;;;4955681;28;20020;-74
2023/07/22 05:05:35;;;;;;;7.53;2.88;;;28.20;99.90;;;;;;4955690;28;20480;-74
2023/07/22 05:08:01;;;;;;;9.00;3.28;;;27.30;99.90;;;;;;4955829;28;20059;-74
2023/07/22 05:10:28;;;;;;;9.52;3.78;;;26.70;99.90;;;;;;4954136;28;20023;-75
2023/07/22 05:12:54;;;;;;;8.93;4.03;;;26.00;99.90;;;;;;4949018;28;20050;-74
2023/07/22 05:15:20;;;;;;;12.27;3.83;;;26.00;99.90;;;;;;4963191;28;20035;-74
2023/07/22 05:17:46;;;;;;;11.90;4.45;;;25.60;99.90;;;;;;4955793;28;20477;-74
2023/07/22 05:20:15;;;;;;;9.82;3.90;;;25.60;99.90;;;;;;4955740;28;20109;-74
2023/07/22 05:22:41;;;;;;;8.57;3.92;;;25.50;99.90;;;;;;4955379;29;20049;-74
2023/07/22 05:25:09;;;;;;;9.88;3.95;;;25.30;99.90;;;;;;4954688;28;20508;-74
2023/07/22 05:27:36;;;;;;;16.17;5.22;;;25.20;99.90;;;;;;4955384;28;20022;-73
2023/07/22 05:30:02;;;;;;;10.90;3.50;;;25.20;99.90;;;;;;4954847;28;20031;-74
2023/07/22 05:32:31;;;;;;;7.97;3.55;;;25.40;99.90;;;;;;4953389;28;20412;-74
2023/07/22 05:34:57;;;;;;;10.68;3.92;;;25.50;99.90;;;;;;4952789;28;20031;-73
2023/07/22 05:37:24;;;;;;;12.88;4.65;;;25.60;99.90;;;;;;4958198;28;20508;-73
2023/07/22 05:39:50;;;;;;;16.33;4.53;;;25.60;99.90;;;;;;4954631;28;20039;-73
2023/07/22 05:42:17;;;;;;;10.60;4.50;;;25.70;99.90;;;;;;4954011;29;20043;-73
2023/07/22 05:44:43;;;;;;;12.13;4.10;;;25.80;99.90;;;;;;4954885;28;20023;-73
2023/07/22 05:47:09;;;;;;;12.07;4.18;;;25.60;99.90;;;;;;4954875;28;20027;-73
2023/07/22 05:49:35;;;;;;;8.52;3.58;;;25.20;99.90;;;;;;4952907;28;20127;-73
2023/07/22 05:52:01;;;;;;;8.10;4.13;;;25.20;99.90;;;;;;4953991;28;20027;-73
2023/07/22 05:54:27;;;;;;;10.40;3.90;;;24.60;99.90;;;;;;4954562;28;20341;-73
2023/07/22 05:56:52;;;;;;;11.38;3.67;;;24.80;99.90;;;;;;4954650;28;20058;-73
2023/07/22 05:59:18;;;;;;;9.30;4.30;;;24.70;99.90;;;;;;4954539;28;20030;-74
2023/07/22 06:01:44;;;;;;;8.90;3.53;;;24.60;99.90;;;;;;4954515;28;20027;-73
2023/07/22 06:04:10;;;;;;;9.13;3.78;;;24.80;99.90;;;;;;4954282;28;20031;-74
2023/07/22 06:06:36;;;;;;;8.52;3.28;;;25.10;99.90;;;;;;4954417;28;20023;-73
2023/07/22 06:09:02;;;;;;;7.18;3.03;;;25.70;99.90;;;;;;4954535;28;20027;-74
2023/07/22 06:11:28;;;;;;;7.93;3.42;;;25.60;99.90;;;;;;4954519;28;20035;-74
2023/07/22 06:13:54;;;;;;;5.97;3.78;;;25.50;99.90;;;;;;4954312;28;20130;-73
2023/07/22 06:16:20;;;;;;;8.23;4.10;;;25.30;99.90;;;;;;4954493;28;20031;-73
2023/07/22 06:18:46;;;;;;;8.68;3.55;;;25.10;99.90;;;;;;4952628;28;20031;-74
2023/07/22 06:21:12;;;;;;;5.50;3.13;;;25.20;99.90;;;;;;4954326;28;20062;-74
2023/07/22 06:23:37;;;;;;;6.35;3.25;;;25.20;99.90;;;;;;4952665;28;20074;-73
2023/07/22 06:26:03;;;;;;;13.27;3.42;;;25.00;99.90;;;;;;4954196;28;20385;-73
2023/07/22 06:28:29;;;;;;;7.65;3.20;;;24.80;99.90;;;;;;4954210;28;20023;-74
2023/07/22 06:30:55;;;;;;;6.47;3.15;;;24.80;99.90;;;;;;4954116;28;20075;-74
2023/07/22 06:33:21;;;;;;;9.90;3.53;;;24.70;99.90;;;;;;4936986;29;20050;-74
2023/07/22 06:35:47;;;;;;;8.13;3.55;;;24.60;99.90;;;;;;4954006;28;20047;-73
2023/07/22 06:38:13;;;;;;;9.02;4.07;;;24.50;99.90;;;;;;4954103;28;20066;-73
2023/07/22 06:40:39;;;;;;;5.85;3.40;;;24.50;99.90;;;;;;4954008;28;20110;-73
2023/07/22 06:43:05;;;;;;;8.20;3.42;;;24.70;99.90;;;;;;4952333;28;20171;-73
2023/07/22 06:45:32;;;;;;;5.32;3.28;;;25.10;99.90;;;;;;4966865;28;20461;-73
2023/07/22 06:47:58;;;;;;;10.45;3.28;;;25.20;99.90;;;;;;4953914;28;20027;-73
2023/07/22 06:50:24;;;;;;;9.02;3.30;;;25.20;99.90;;;;;;4953919;28;20046;-73
2023/07/22 06:52:50;;;;;;;9.95;3.53;;;25.30;99.90;;;;;;4953882;28;20031;-73
2023/07/22 06:55:16;;;;;;;7.45;3.72;;;25.20;99.90;;;;;;4953520;28;20575;-73
2023/07/22 06:57:42;;;;;;;6.82;3.95;;;25.60;99.90;;;;;;4953638;28;20049;-74
2023/07/22 07:00:09;;;;;;;7.25;2.95;;;26.10;99.90;;;;;;4953836;28;20051;-73
2023/07/22 07:02:36;;;;;;;7.45;2.63;;;25.70;99.90;;;;;;4953632;28;20078;-74
2023/07/22 07:05:02;;;;;;;7.53;3.33;;;25.60;99.90;;;;;;4953969;28;20055;-73
2023/07/22 07:07:28;;;;;;;8.80;3.22;;;25.80;99.90;;;;;;4953644;28;20020;-73
2023/07/22 07:09:54;;;;;;;7.15;3.28;;;25.90;99.90;;;;;;4953783;28;20098;-73
2023/07/22 07:12:19;;;;;;;10.80;3.65;;;26.30;99.90;;;;;;4953206;28;20449;-73
2023/07/22 07:14:45;;;;;;;5.10;2.70;;;26.20;99.90;;;;;;4952173;28;20047;-73
2023/07/22 07:17:11;;;;;;;8.32;3.28;;;26.30;99.90;;;;;;4954016;28;20031;-73
2023/07/22 07:19:37;;;;;;;8.80;3.42;;;26.20;99.90;;;;;;4957493;28;20074;-73
2023/07/22 07:22:03;;;;;;;8.35;3.55;;;26.00;99.90;;;;;;4957948;28;20019;-73
2023/07/22 07:24:28;;;;;;;6.28;2.78;;;26.30;99.90;;;;;;4957393;28;20054;-73
2023/07/22 07:26:54;;;;;;;10.60;3.53;;;26.50;99.90;;;;;;4957488;28;20046;-73
2023/07/22 07:29:20;;;;;;;12.40;3.90;;;26.70;99.90;;;;;;4957174;28;20040;-73
2023/07/22 07:31:46;;;;;;;6.57;2.72;;;27.00;99.90;;;;;;4957445;28;20027;-74
2023/07/22 07:34:12;;;;;;;8.75;3.47;;;27.10;99.90;;;;;;4955369;28;20052;-73
2023/07/22 07:36:37;;;;;;;7.93;2.83;;;26.80;99.90;;;;;;4957368;28;20031;-73
2023/07/22 07:39:03;;;;;;;4.63;3.17;;;26.40;99.90;;;;;;4957250;28;20054;-73
2023/07/22 07:41:30;;;;;;;5.72;2.90;;;26.70;99.90;;;;;;4957132;28;20082;-73
2023/07/22 07:43:56;;;;;;;5.75;2.63;;;26.50;99.90;;;;;;4957134;28;20477;-73
2023/07/22 07:46:27;;;;;;;8.00;3.10;;;26.90;99.90;;;;;;4957057;28;20054;-73
2023/07/22 07:49:02;;;;;;;5.90;3.00;;;27.10;99.90;;;;;;4957459;28;20039;-73
2023/07/22 07:51:30;;;;;;;7.40;2.95;;;27.20;99.90;;;;;;4956836;28;20034;-73
2023/07/22 07:53:58;;;;;;;4.95;2.55;;;26.80;99.90;;;;;;4956879;28;20035;-73
2023/07/22 07:56:25;;;;;;;8.68;3.03;;;27.10;99.90;;;;;;4956726;28;20381;-73
2023/07/22 07:58:51;;;;;;;7.97;2.88;;;27.30;99.90;;;;;;4956716;28;20058;-74
2023/07/22 08:01:17;;;;;;;6.90;2.92;;;27.20;99.90;;;;;;4956952;28;20433;-73
2023/07/22 08:03:44;;;;;;;4.65;2.33;;;27.20;99.90;;;;;;4956649;28;20019;-73
2023/07/22 08:06:11;;;;;;;6.38;2.97;;;27.00;99.90;;;;;;4957050;28;20059;-73
2023/07/22 08:08:37;;;;;;;9.25;3.88;;;26.90;99.90;;;;;;4956717;28;20023;-73
2023/07/22 08:11:09;;;;;;;6.97;3.20;;;26.90;99.90;;;;;;4956867;28;20493;-73
2023/07/22 08:13:36;;;;;;;6.32;2.95;;;27.30;99.90;;;;;;4956292;28;20066;-74
2023/07/22 08:16:03;;;;;;;5.68;2.97;;;27.40;99.90;;;;;;4956742;28;20032;-73
2023/07/22 08:18:30;;;;;;;5.07;3.05;;;27.60;99.90;;;;;;4956184;28;20038;-73
2023/07/22 08:20:56;;;;;;;5.88;2.40;;;27.80;99.90;;;;;;4956463;28;20114;-73
2023/07/22 08:23:22;;;;;;;9.30;2.95;;;27.60;99.90;;;;;;4956524;28;20027;-73
2023/07/22 08:25:49;;;;;;;7.82;2.92;;;27.10;99.90;;;;;;4956317;28;20416;-73
2023/07/22 08:28:15;;;;;;;3.83;2.20;;;27.30;99.90;;;;;;4956103;28;20049;-73
2023/07/22 08:30:42;;;;;;;6.15;2.83;;;27.70;99.90;;;;;;4956272;28;20115;-73
2023/07/22 08:33:09;;;;;;;7.60;3.72;;;27.60;99.90;;;;;;4956299;28;20070;-73
2023/07/22 08:35:39;;;;;;;7.03;3.90;;;27.20;99.90;;;;;;4956344;28;20043;-73
2023/07/22 08:38:05;;;;;;;6.47;4.20;;;27.10;99.90;;;;;;4956468;28;20082;-73
2023/07/22 08:40:35;;;;;;;7.85;4.95;;;26.90;99.90;;;;;;4956180;28;20038;-73
2023/07/22 08:43:03;;;;;;;8.10;3.10;;;26.40;99.90;;;;;;4955999;28;20031;-73
2023/07/22 08:45:32;;;;;;;6.47;2.20;;;27.20;99.90;;;;;;4956289;28;20023;-73
2023/07/22 08:47:59;;;;;;;5.70;3.15;;;27.20;99.90;;;;;;4955719;28;20039;-73
2023/07/22 08:50:29;;;;;;;11.43;4.70;;;27.30;99.90;;;;;;4956083;28;20489;-73
2023/07/22 08:52:56;;;;;;;8.95;2.92;;;27.20;99.90;;;;;;4955705;28;20470;-72
2023/07/22 08:55:23;;;;;;;2.92;2.13;;;27.50;99.90;;;;;;4955937;28;20101;-73
2023/07/22 08:57:51;;;;;;;7.97;3.60;;;27.50;99.90;;;;;;4955775;28;20469;-73
2023/07/22 09:00:18;;;;;;;9.50;3.83;;;27.00;99.90;;;;;;4955783;28;20101;-73
2023/07/22 09:02:45;;;;;;;6.85;3.15;;;27.00;99.90;;;;;;4955679;28;20461;-72
2023/07/22 09:05:11;;;;;;;10.20;3.45;;;26.80;99.90;;;;;;4955456;28;20039;-72
2023/07/22 09:07:38;;;;;;;8.13;3.28;;;27.30;99.90;;;;;;4955800;28;20023;-73
2023/07/22 09:10:07;;;;;;;7.20;3.17;;;27.40;99.90;;;;;;4955611;28;20090;-74
2023/07/22 09:12:39;;;;;;;6.78;3.40;;;27.50;99.90;;;;;;4943062;28;20043;-73
2023/07/22 09:15:11;;;;;;;9.95;3.20;;;27.40;99.90;;;;;;4955246;28;20111;-73
2023/07/22 09:17:39;;;;;;;7.00;2.72;;;27.30;99.90;;;;;;4955304;28;20042;-73
2023/07/22 09:20:05;;;;;;;6.57;2.90;;;27.20;99.90;;;;;;4955239;28;20042;-73
2023/07/22 09:22:32;;;;;;;7.72;3.05;;;27.40;99.90;;;;;;4955226;28;20031;-73
2023/07/22 09:25:21;;;;;;;7.22;2.72;;;27.60;99.90;;;;;;4954165;28;20074;-73
2023/07/22 09:27:54;;;;;;;5.80;3.42;;;27.60;99.90;;;;;;4947366;28;20035;-73
2023/07/22 09:30:21;;;;;;;6.85;3.35;;;28.20;99.90;;;;;;4953851;28;20023;-73
2023/07/22 09:32:48;;;;;;;5.68;3.40;;;28.00;99.90;;;;;;4955274;28;20023;-73
2023/07/22 09:35:13;;;;;;;8.23;3.50;;;27.90;99.90;;;;;;4954695;28;20150;-73
2023/07/22 09:37:39;;;;;;;9.20;4.50;;;27.70;99.90;;;;;;4955099;28;20510;-73
2023/07/22 09:40:18;;;;;;;6.97;3.60;;;27.70;99.90;;;;;;4954114;28;20031;-73
2023/07/22 09:42:48;;;;;;;5.70;3.00;;;27.60;99.90;;;;;;4954768;28;20122;-74
2023/07/22 09:45:14;;;;;;;6.28;4.32;;;27.80;99.90;;;;;;4955303;28;20405;-73
2023/07/22 09:47:47;;;;;;;8.65;3.50;;;28.20;99.90;;;;;;4954458;28;20027;-74
2023/07/22 09:50:16;;;;;;;5.18;3.30;;;28.00;99.90;;;;;;4955031;28;20473;-73
2023/07/22 09:52:47;;;;;;;4.82;3.22;;;28.10;99.90;;;;;;4954506;28;20031;-73
2023/07/22 09:55:17;;;;;;;4.90;2.97;;;27.90;99.90;;;;;;4954885;28;20039;-73
2023/07/22 09:57:46;;;;;;;4.53;3.08;;;27.70;99.90;;;;;;4954350;28;20031;-73
2023/07/22 10:00:17;;;;;;;6.07;3.33;;;27.40;99.90;;;;;;4954693;28;20102;-73
2023/07/22 10:02:44;;;;;;;7.55;3.08;;;27.30;99.90;;;;;;4954486;28;20039;-73
2023/07/22 10:05:14;;;;;;;7.22;3.22;;;27.10;99.90;;;;;;4954549;28;20113;-73
2023/07/22 10:07:47;;;;;;;5.38;3.35;;;27.50;99.90;;;;;;4954885;28;20039;-73
2023/07/22 10:10:15;;;;;;;4.53;2.55;;;27.80;99.90;;;;;;4954164;28;20473;-73
2023/07/22 10:12:42;;;;;;;7.50;3.33;;;27.80;99.90;;;;;;4954721;28;20608;-73
2023/07/22 10:15:14;;;;;;;4.82;3.47;;;27.70;99.90;;;;;;4954352;28;20516;-73
2023/07/22 10:17:42;;;;;;;7.70;3.47;;;27.70;99.90;;;;;;4954366;28;20516;-73
2023/07/22 10:20:14;;;;;;;4.70;2.67;;;27.50;99.90;;;;;;4954608;28;20042;-73
2023/07/22 10:22:43;;;;;;;4.95;3.40;;;27.60;99.90;;;;;;4954689;28;20027;-73
2023/07/22 10:25:20;;;;;;;6.95;3.25;;;27.90;99.90;;;;;;4954790;28;20027;-73
2023/07/22 10:27:48;;;;;;;9.75;4.15;;;28.00;99.90;;;;;;4945335;29;20413;-73
2023/07/22 10:30:16;;;;;;;5.22;3.13;;;28.00;99.90;;;;;;4954133;28;20484;-73
2023/07/22 10:32:52;;;;;;;5.70;3.40;;;28.20;99.90;;;;;;4954193;28;20046;-73
2023/07/22 10:35:30;;;;;;;5.30;3.25;;;27.90;99.90;;;;;;4954078;28;20484;-73
2023/07/22 10:38:09;;;;;;;6.78;3.08;;;28.00;99.90;;;;;;4947527;28;20492;-73
2023/07/22 10:40:54;;;;;;;6.88;3.38;;;28.00;99.90;;;;;;4954470;28;20059;-72
2023/07/22 10:43:33;;;;;;;6.50;3.00;;;28.20;99.90;;;;;;4958649;28;20023;-73
2023/07/22 10:46:10;;;;;;;5.72;3.00;;;28.10;99.90;;;;;;4960111;28;20098;-73
2023/07/22 10:48:37;;;;;;;5.65;3.05;;;28.10;99.90;;;;;;4942508;28;20027;-73
2023/07/22 10:51:17;;;;;;;5.10;3.40;;;27.90;99.90;;;;;;4953011;28;20023;-72
2023/07/22 10:53:46;;;;;;;4.90;2.80;;;28.30;99.90;;;;;;4953546;28;20432;-73
2023/07/22 10:56:16;;;;;;;5.10;2.83;;;28.30;99.90;;;;;;4954399;28;20023;-73
2023/07/22 10:58:48;;;;;;;4.68;3.17;;;;;;;;;;4953692;28;20035;-73
2023/07/22 11:01:24;;;;;;;;;;;28.30;99.90;;;;;;4954870;28;20030;-73
2023/07/22 11:04:06;;;;;;;7.18;3.28;;;28.60;99.90;;;;;;4953640;28;19915;-74
2023/07/22 11:06:32;;;;;;;8.82;3.00;;;28.70;99.90;;;;;;4953644;28;20030;-73
2023/07/22 11:08:58;;;;;;;5.75;2.92;;;28.70;99.90;;;;;;4953706;28;20042;-73
2023/07/22 11:11:43;;;;;;;5.47;3.70;;;28.60;99.90;;;;;;4953254;28;20031;-74
2023/07/22 11:14:23;;;;;;;4.47;3.35;;;28.30;99.90;;;;;;4953272;28;20126;-74
2023/07/22 11:16:49;;;;;;;4.97;2.60;;;28.50;99.90;;;;;;4946677;28;20031;-73
2023/07/22 11:19:16;;;;;;;4.45;2.70;;;28.50;99.90;;;;;;4953637;28;20020;-73
2023/07/22 11:21:43;;;;;;;4.93;3.00;;;28.30;99.90;;;;;;4953754;28;20031;-74
2023/07/22 11:24:09;;;;;;;5.47;3.15;;;;;;;;;;4953726;28;20031;-73
2023/07/22 11:26:36;;;;;;;5.90;2.88;;;28.70;99.90;;;;;;4953557;28;20031;-73
2023/07/22 11:29:04;;;;;;;7.50;2.80;;;28.80;99.90;;;;;;4953572;28;20110;-74
2023/07/22 11:31:34;;;;;;;4.13;2.60;;;29.20;99.90;;;;;;4953116;28;20082;-74
2023/07/22 11:34:00;;;;;;;5.72;3.25;;;29.40;99.90;;;;;;4953431;28;20082;-73
2023/07/22 11:36:26;;;;;;;3.78;2.78;;;29.10;99.90;;;;;;4953282;28;20029;-73
2023/07/22 11:38:54;;;;;;;5.45;3.40;;;29.00;99.90;;;;;;4953532;28;20035;-72
2023/07/22 11:41:21;;;;;;;5.95;3.03;;;28.70;99.90;;;;;;4951848;28;20027;-73
2023/07/22 11:43:47;;;;;;;5.15;3.38;;;28.60;99.90;;;;;;4953408;28;20027;-74
2023/07/22 11:46:13;;;;;;;5.00;3.22;;;28.90;99.90;;;;;;4953410;28;20038;-73
2023/07/22 11:48:39;;;;;;;8.57;3.45;;;29.00;99.90;;;;;;4953606;28;20400;-74
2023/07/22 11:51:07;;;;;;;6.63;3.60;;;28.70;99.90;;;;;;4953079;28;20030;-73
2023/07/22 11:53:33;;;;;;;6.25;3.33;;;28.50;99.90;;;;;;4953253;28;20058;-73
2023/07/22 11:55:59;;;;;;;6.35;3.80;;;28.00;99.90;;;;;;4953208;28;20051;-73
2023/07/22 11:58:26;;;;;;;7.55;3.70;;;27.90;99.90;;;;;;4953192;28;20035;-74
2023/07/22 12:01:09;;;;;;;7.75;3.35;;;28.10;99.90;;;;;;4953326;28;20023;-73
2023/07/22 12:03:35;;;;;;;5.07;3.85;;;28.60;99.90;;;;;;4954909;28;20039;-75
2023/07/22 12:06:03;;;;;;;4.63;2.60;;;28.90;99.90;;;;;;4956730;28;20478;-74
2023/07/22 12:08:29;;;;;;;6.68;3.00;;;29.10;99.90;;;;;;4956616;28;20060;-73
2023/07/22 12:11:00;;;;;;;9.02;3.03;;;29.00;99.90;;;;;;4956336;28;20493;-74
2023/07/22 12:13:26;;;;;;;5.10;3.10;;;29.20;99.90;;;;;;4956821;28;20031;-74
2023/07/22 12:16:05;;;;;;;7.78;3.00;;;29.20;99.90;;;;;;4956648;28;20081;-75
2023/07/22 12:18:44;;;;;;;4.60;3.08;;;29.40;99.90;;;;;;4956509;28;20488;-74
2023/07/22 12:21:11;;;;;;;5.60;3.63;;;29.30;99.90;;;;;;4956771;28;20042;-73
2023/07/22 12:23:37;;;;;;;6.75;3.70;;;29.30;99.90;;;;;;4956209;28;20106;-73
2023/07/22 12:26:04;;;;;;;7.53;3.38;;;29.00;99.90;;;;;;4956553;28;20039;-74
2023/07/22 12:28:30;;;;;;;5.65;3.30;;;28.80;99.90;;;;;;4956250;28;20021;-74
2023/07/22 12:30:57;;;;;;;12.60;3.50;;;28.70;99.90;;;;;;4956501;28;20083;-74
2023/07/22 12:33:26;;;;;;;6.78;3.42;;;28.70;99.90;;;;;;4956393;28;20473;-73
2023/07/22 12:35:55;;;;;;;4.82;3.30;;;28.40;99.90;;;;;;4956309;28;20054;-73
2023/07/22 12:38:21;;;;;;;6.15;3.38;;;28.10;99.90;;;;;;4956030;28;20118;-73
2023/07/22 12:40:47;;;;;;;4.13;2.83;;;28.30;99.90;;;;;;4956045;28;20059;-74
2023/07/22 12:43:13;;;;;;;3.03;2.72;;;28.50;99.90;;;;;;4956314;28;20497;-73
2023/07/22 12:45:39;;;;;;;7.95;2.90;;;28.50;99.90;;;;;;4955812;28;20100;-73
2023/07/22 12:48:05;;;;;;;3.88;2.88;;;28.40;99.90;;;;;;4955855;28;20024;-74